Aérodrome :
LOGIN :

S'inscrire | Disclaimer

   EN    FR    IT 

 










Légende :    VFR   VFR Marginal   IFR   IFR Intensif   IFR Très Intensif
Visi : 
Plafond : 
>= 8 km
>= 3000ft
5 à 8 km
1000 à 3000 ft
1500m à 5 km
500 à 1000 ft
800 à 1500m
200 à 500 ft
< 800m
< 200 ft
Symboles :   Orages  Brouillard  Fortes neiges  Fortes précipitations  Vent > 20 kt
SIGMETs :   Divers  Orages  Givrage  Turbulence  Onde Orograph.  Cendres Volcan.






- Altitude de l'aérodrome : 3 ft
- Code IATA : LWR


EHLW - Leuuwarden Air Base

DERNIER METAR :
  • 090928Z AUTO 02008KT 3900 BR SCT004 OVC005 05/05 Q1016 YLO BECMG 7000 NSW SCT006 BKN008

METARs EXPIRÉS :
  • 090920Z AUTO 01007KT 3200 R05/P3000N BR SCT004 BKN005 OVC006 05/05 Q1016 YLO BECMG 5000 NSW
  • 090855Z AUTO 35007KT 330V030 3100 R05/P3000N BR OVC003 06/05 Q1016 YLO BECMG 36007KT 5000 NSW SCT003 BKN005
  • 090825Z AUTO 35007KT 2000 R05/2000D BR FEW002 BKN003 OVC004 05/05 Q1016 YLO BECMG 36007KT 5000 NSW SCT003 BKN005
  • 090813Z AUTO 34007KT 300V010 2300 R05/2300U BR BKN002 OVC003 05/05 Q1016 AMB BECMG 36007KT 5000 NSW SCT003 BKN005
  • 090806Z AUTO 33007KT 300V010 2300 R05/2300N BR SCT002 BKN003 OVC004 05/05 Q1016 AMB BECMG 36007KT 5000 NSW SCT003 BKN005
  • 090755Z AUTO 33006KT 290V010 2100 R05/2100U BR BKN001 OVC003 05/05 Q1016 RED BECMG 36007KT 5000 NSW SCT003 BKN005
  • 090747Z AUTO 33006KT 290V360 1800 R05/1800N BR SCT002 BKN003 OVC004 05/05 Q1016 AMB BECMG 36007KT 5000 NSW SCT003 BKN005
  • 090725Z AUTO 33007KT 280V350 1500 R05/1500N BR BKN001 OVC003 05/05 Q1016 RED BECMG 36007KT 5000 NSW SCT003 BKN005
  • 090715Z AUTO 33007KT 290V350 1500 BR OVC001 05/05 Q1015 RED BECMG 36007KT 5000 NSW SCT003 BKN005
  • 090713Z AUTO 32006KT 1600 BR OVC001 05/05 Q1015 RED
  • 090655Z AUTO 32007KT 290V350 0400 FG OVC000 05/05 Q1015 RED
  • 090639Z AUTO 31007KT 260V340 0350 FG OVC000/// 05/05 Q1015 RED

TAF TAF EHLW
Valide du 09 à 06h jusqu'au 09 à 18h UTC


090550Z 0906/0918 30007KT 0800 FG BKN001
BECMG 0907/0910 3000 BR SCT002 OVC004
BECMG 0909/0911 02008KT 9999 NSW SCT010 BKN015
BECMG 0912/0915 FEW016 BKN022
BECMG 0916/0918 VRB02KT



MET'MAP, la Météo Aéronautique d'un coup d'oeil ! - Copyright ORBIFLY Décembre 2007 - Disclaimer

ORBIFLY MET'MAP TEAM :

Programmation & Développement : Alexandra Zaïnal
Sur une idée originale de : Baudouin d'Aumeries
Assistance à la programmation : Marc-Olivier Méhu
Soutien technique & logistique : Manuel Goepfert

Contact : metmap@orbifly.com




SOURCES & CREDITS :

   NOAA